Time;durP1;ratioP1;P1;durP2;ratioP2;P2;SDS_P1;SDS_P2;PMS_P1;PMS_P2;Temp;Humidity;BMP_temperature;BMP_pressure;BME280_temperature;BME280_humidity;BME280_pressure;Samples;Min_cycle;Max_cycle;Signal;HPM_P1;HPM_P2
2024/03/24 00:00:21;;;;;;;2.17;0.40;;;4.40;99.90;;;;;;4991518;28;20052;-75
2024/03/24 00:02:47;;;;;;;1.98;0.28;;;4.40;99.90;;;;;;4992625;28;20022;-76
2024/03/24 00:05:13;;;;;;;0.45;0.40;;;4.30;99.90;;;;;;4993071;28;20030;-75
2024/03/24 00:07:38;;;;;;;0.40;0.40;;;4.20;99.90;;;;;;4991502;28;20397;-76
2024/03/24 00:10:04;;;;;;;1.33;0.55;;;4.20;99.90;;;;;;4991852;28;20076;-75
2024/03/24 00:12:30;;;;;;;0.47;0.40;;;4.10;99.90;;;;;;4991660;28;20374;-76
2024/03/24 00:14:56;;;;;;;1.40;0.30;;;4.10;99.90;;;;;;4992872;28;20091;-76
2024/03/24 00:17:22;;;;;;;1.45;0.35;;;4.10;99.90;;;;;;4991659;28;20071;-75
2024/03/24 00:19:48;;;;;;;1.02;0.40;;;4.10;99.90;;;;;;4991618;28;20485;-76
2024/03/24 00:22:13;;;;;;;0.40;0.40;;;4.20;99.90;;;;;;4990937;28;20681;-75
2024/03/24 00:24:39;;;;;;;0.63;0.50;;;4.20;99.90;;;;;;4992857;28;20482;-76
2024/03/24 00:27:05;;;;;;;0.30;0.30;;;4.20;99.90;;;;;;4992944;28;20034;-75
2024/03/24 00:29:31;;;;;;;1.95;0.38;;;4.30;99.90;;;;;;4991020;28;20414;-76
2024/03/24 00:31:56;;;;;;;0.38;0.38;;;4.30;99.90;;;;;;4992423;28;20027;-76
2024/03/24 00:34:22;;;;;;;0.75;0.75;;;4.40;99.90;;;;;;4992706;28;20031;-75
2024/03/24 00:36:48;;;;;;;0.82;0.82;;;4.30;99.90;;;;;;4992489;28;20026;-76
2024/03/24 00:39:13;;;;;;;0.60;0.60;;;4.20;99.90;;;;;;4991302;28;20121;-76
2024/03/24 00:41:39;;;;;;;2.13;0.40;;;4.20;99.90;;;;;;4991410;28;20109;-76
2024/03/24 00:44:05;;;;;;;1.02;0.80;;;4.20;99.90;;;;;;4990770;28;20049;-76
2024/03/24 00:46:31;;;;;;;3.50;0.65;;;4.20;99.90;;;;;;4992535;28;20089;-76
2024/03/24 00:48:57;;;;;;;3.75;0.60;;;4.20;99.90;;;;;;4991290;28;20034;-76
2024/03/24 00:51:23;;;;;;;1.48;0.43;;;4.10;99.90;;;;;;4992429;28;20041;-76
2024/03/24 00:53:48;;;;;;;2.35;0.63;;;4.20;99.90;;;;;;4990539;28;20397;-76
2024/03/24 00:56:14;;;;;;;0.98;0.70;;;4.00;99.90;;;;;;4991344;28;20045;-75
2024/03/24 00:58:40;;;;;;;1.15;0.43;;;4.00;99.90;;;;;;4992133;28;20022;-76
2024/03/24 01:01:06;;;;;;;0.65;0.40;;;4.00;99.90;;;;;;4992067;28;20028;-76
2024/03/24 01:03:32;;;;;;;0.55;0.55;;;4.20;99.90;;;;;;4991717;28;20052;-76
2024/03/24 01:05:58;;;;;;;0.50;0.50;;;4.10;99.90;;;;;;4990850;28;20027;-75
2024/03/24 01:08:24;;;;;;;0.55;0.47;;;4.10;99.90;;;;;;4991212;28;20031;-76
2024/03/24 01:10:49;;;;;;;0.80;0.50;;;4.10;99.90;;;;;;4990344;28;20029;-76
2024/03/24 01:13:15;;;;;;;0.60;0.60;;;4.10;99.90;;;;;;4990465;28;20031;-76
2024/03/24 01:15:47;;;;;;;3.78;0.60;;;4.10;99.90;;;;;;4992343;28;20534;-76
2024/03/24 01:18:12;;;;;;;0.50;0.50;;;4.20;99.90;;;;;;4990948;28;20036;-76
2024/03/24 01:20:38;;;;;;;2.50;0.32;;;4.20;99.90;;;;;;4990979;28;20022;-76
2024/03/24 01:23:04;;;;;;;1.58;0.82;;;4.20;99.90;;;;;;4978342;28;20023;-76
2024/03/24 01:25:31;;;;;;;0.40;0.40;;;4.10;99.90;;;;;;4983845;28;20053;-76
2024/03/24 01:27:57;;;;;;;0.57;0.50;;;4.10;99.90;;;;;;4989897;28;20018;-76
2024/03/24 01:30:23;;;;;;;0.65;0.65;;;4.10;99.90;;;;;;4986658;28;20058;-76
2024/03/24 01:32:48;;;;;;;1.27;0.68;;;4.00;99.90;;;;;;4994150;28;20046;-76
2024/03/24 01:35:15;;;;;;;1.35;0.88;;;4.10;99.90;;;;;;4995851;28;20034;-76
2024/03/24 01:37:40;;;;;;;0.95;0.55;;;4.20;99.90;;;;;;4991262;28;20023;-76
2024/03/24 01:40:07;;;;;;;1.33;0.68;;;4.20;99.90;;;;;;4986502;28;20077;-76
2024/03/24 01:42:32;;;;;;;0.45;0.40;;;4.10;99.90;;;;;;4994069;28;20035;-76
2024/03/24 01:44:58;;;;;;;0.75;0.70;;;4.20;99.90;;;;;;4995857;28;20077;-76
2024/03/24 01:47:24;;;;;;;0.57;0.50;;;4.20;99.90;;;;;;4995587;28;20498;-76
2024/03/24 01:49:49;;;;;;;2.17;0.93;;;4.20;99.90;;;;;;4995629;28;20030;-76
2024/03/24 01:52:16;;;;;;;0.85;0.32;;;4.20;99.90;;;;;;4993948;28;20408;-76
2024/03/24 01:54:42;;;;;;;2.55;0.52;;;4.10;99.90;;;;;;4995551;28;20077;-76
2024/03/24 01:57:08;;;;;;;0.47;0.47;;;4.10;99.90;;;;;;4984590;28;20027;-76
2024/03/24 01:59:34;;;;;;;1.23;0.82;;;4.10;99.90;;;;;;4991498;28;20028;-76
2024/03/24 02:02:00;;;;;;;0.50;0.38;;;4.10;99.90;;;;;;4994844;28;20077;-76
2024/03/24 02:04:25;;;;;;;1.83;0.60;;;4.00;99.90;;;;;;4995416;28;20030;-76
2024/03/24 02:06:51;;;;;;;1.13;0.40;;;4.00;99.90;;;;;;4995397;28;20068;-76
2024/03/24 02:09:17;;;;;;;0.65;0.50;;;4.00;99.90;;;;;;4998989;23;20046;-74
2024/03/24 02:11:43;;;;;;;1.08;0.45;;;4.20;99.90;;;;;;5000408;28;20049;-74
2024/03/24 02:14:08;;;;;;;0.40;0.40;;;4.10;99.90;;;;;;4995212;28;20034;-76
2024/03/24 02:16:34;;;;;;;0.50;0.50;;;4.10;99.90;;;;;;5002203;28;20034;-74
2024/03/24 02:19:01;;;;;;;0.85;0.65;;;4.20;99.90;;;;;;5000239;28;20081;-75
2024/03/24 02:21:27;;;;;;;0.63;0.45;;;4.20;99.90;;;;;;5000160;28;20022;-73
2024/03/24 02:23:52;;;;;;;0.93;0.60;;;4.20;99.90;;;;;;5000682;28;20106;-74
2024/03/24 02:26:18;;;;;;;0.50;0.50;;;4.20;99.90;;;;;;5000778;28;20086;-77
2024/03/24 02:28:44;;;;;;;1.63;0.60;;;4.20;99.90;;;;;;5000598;28;20018;-74
2024/03/24 02:31:11;;;;;;;0.55;0.55;;;4.10;99.90;;;;;;5000443;28;20033;-75
2024/03/24 02:33:37;;;;;;;1.48;0.75;;;4.10;99.90;;;;;;4998954;28;20172;-72
2024/03/24 02:36:03;;;;;;;0.65;0.65;;;4.10;99.90;;;;;;4999345;28;20508;-74
2024/03/24 02:38:29;;;;;;;1.00;0.55;;;4.20;99.90;;;;;;5000184;28;20125;-74
2024/03/24 02:40:54;;;;;;;0.45;0.45;;;4.10;99.90;;;;;;4999803;28;20031;-74
2024/03/24 02:43:20;;;;;;;1.38;0.57;;;4.10;99.90;;;;;;4998624;28;20084;-74
2024/03/24 02:45:54;;;;;;;0.60;0.60;;;4.10;99.90;;;;;;4999887;28;20370;-74
2024/03/24 02:48:19;;;;;;;0.82;0.47;;;3.90;99.90;;;;;;4998167;28;20073;-74
2024/03/24 02:50:45;;;;;;;1.55;0.45;;;3.90;99.90;;;;;;4997932;28;20038;-73
2024/03/24 02:53:11;;;;;;;0.55;0.55;;;4.00;99.90;;;;;;4997702;28;20038;-74
2024/03/24 02:55:43;;;;;;;2.40;0.90;;;4.00;99.90;;;;;;5000087;28;20037;-76
2024/03/24 02:58:09;;;;;;;1.05;1.02;;;4.00;99.90;;;;;;5000034;28;20026;-75
2024/03/24 03:00:34;;;;;;;1.00;0.75;;;4.00;99.90;;;;;;5000222;28;20019;-74
2024/03/24 03:03:00;;;;;;;1.33;0.50;;;4.00;99.90;;;;;;5000281;28;20038;-76
2024/03/24 03:05:26;;;;;;;2.80;0.77;;;4.00;99.90;;;;;;5000296;28;20019;-73
2024/03/24 03:07:51;;;;;;;0.65;0.50;;;3.90;99.90;;;;;;5001092;28;20018;-74
2024/03/24 03:10:17;;;;;;;0.50;0.50;;;3.90;99.90;;;;;;5000248;28;20027;-74
2024/03/24 03:12:42;;;;;;;0.40;0.40;;;3.90;99.90;;;;;;4999836;28;20030;-74
2024/03/24 03:15:14;;;;;;;0.80;0.70;;;3.80;99.90;;;;;;5000145;28;20105;-73
2024/03/24 03:17:40;;;;;;;1.33;1.08;;;3.90;99.90;;;;;;5000497;28;20023;-76
2024/03/24 03:20:08;;;;;;;0.93;0.70;;;3.90;99.90;;;;;;5000154;28;20025;-74
2024/03/24 03:22:33;;;;;;;0.55;0.40;;;3.90;99.90;;;;;;4997914;28;20024;-74
2024/03/24 03:24:59;;;;;;;0.57;0.57;;;4.00;99.90;;;;;;4998739;28;20058;-75
2024/03/24 03:27:25;;;;;;;1.08;0.73;;;4.00;99.90;;;;;;4998114;28;20033;-74
2024/03/24 03:29:50;;;;;;;1.08;0.80;;;4.00;99.90;;;;;;4997766;28;20404;-72
2024/03/24 03:32:16;;;;;;;0.63;0.63;;;4.00;99.90;;;;;;4997461;28;20113;-74
2024/03/24 03:34:42;;;;;;;0.88;0.70;;;4.00;99.90;;;;;;4997336;28;20080;-74
2024/03/24 03:37:08;;;;;;;3.58;0.65;;;4.10;99.90;;;;;;4998789;28;20104;-75
2024/03/24 03:39:34;;;;;;;0.50;0.50;;;4.10;99.90;;;;;;4998810;28;20076;-74
2024/03/24 03:42:00;;;;;;;1.33;0.90;;;4.00;99.90;;;;;;4998455;28;20031;-75
2024/03/24 03:44:25;;;;;;;1.23;0.73;;;4.00;99.90;;;;;;4998382;28;20022;-73
2024/03/24 03:46:51;;;;;;;1.50;0.70;;;3.90;99.90;;;;;;4998611;28;20080;-75
2024/03/24 03:49:17;;;;;;;1.63;0.82;;;4.00;99.90;;;;;;4997875;28;20621;-75
2024/03/24 03:51:44;;;;;;;1.92;0.82;;;4.00;99.90;;;;;;4997305;28;20034;-74
2024/03/24 03:54:11;;;;;;;2.42;0.90;;;4.00;99.90;;;;;;4996776;28;20027;-76
2024/03/24 03:56:38;;;;;;;1.02;0.93;;;4.00;99.90;;;;;;4998477;28;20018;-74
2024/03/24 03:59:05;;;;;;;0.77;0.77;;;4.10;99.90;;;;;;4998304;28;20014;-73
2024/03/24 04:01:30;;;;;;;0.80;0.80;;;4.20;99.90;;;;;;4998222;28;20026;-74
2024/03/24 04:03:56;;;;;;;2.15;0.73;;;4.20;99.90;;;;;;4997063;28;20497;-74
2024/03/24 04:06:22;;;;;;;0.70;0.70;;;4.10;99.90;;;;;;4997636;28;20449;-73
2024/03/24 04:08:48;;;;;;;0.70;0.70;;;4.10;99.90;;;;;;4998335;28;20038;-74
2024/03/24 04:11:14;;;;;;;2.42;1.33;;;4.10;99.90;;;;;;4997316;28;20101;-73
2024/03/24 04:13:42;;;;;;;1.10;0.82;;;4.10;99.90;;;;;;4996684;28;20057;-74
2024/03/24 04:16:07;;;;;;;0.60;0.60;;;4.10;99.90;;;;;;4997135;28;20022;-73
2024/03/24 04:18:33;;;;;;;0.52;0.52;;;4.10;99.90;;;;;;4998759;28;20500;-73
2024/03/24 04:21:03;;;;;;;0.70;0.70;;;4.20;99.90;;;;;;4998139;28;20026;-73
2024/03/24 04:23:29;;;;;;;1.23;0.80;;;4.10;99.90;;;;;;4997787;28;20723;-75
2024/03/24 04:25:54;;;;;;;1.48;1.20;;;4.00;99.90;;;;;;4998400;28;20041;-72
2024/03/24 04:28:20;;;;;;;0.75;0.75;;;4.10;99.90;;;;;;4998305;28;20034;-73
2024/03/24 04:30:46;;;;;;;1.10;1.00;;;4.20;99.90;;;;;;4997671;28;20026;-73
2024/03/24 04:33:11;;;;;;;0.80;0.70;;;4.10;99.90;;;;;;4994743;28;20035;-73
2024/03/24 04:35:37;;;;;;;0.85;0.85;;;4.00;99.90;;;;;;4996355;28;20032;-74
2024/03/24 04:38:03;;;;;;;1.13;1.08;;;4.00;99.90;;;;;;4996467;28;20027;-73
2024/03/24 04:40:29;;;;;;;0.95;0.80;;;3.90;99.90;;;;;;4995502;28;20027;-74
2024/03/24 04:42:55;;;;;;;0.55;0.55;;;3.90;99.90;;;;;;4996333;28;20041;-76
2024/03/24 04:45:21;;;;;;;1.30;1.20;;;3.90;99.90;;;;;;4996512;28;20092;-74
2024/03/24 04:47:46;;;;;;;2.22;2.05;;;4.00;99.90;;;;;;4994598;28;20034;-75
2024/03/24 04:50:12;;;;;;;2.45;2.22;;;4.00;99.90;;;;;;4994923;28;20026;-74
2024/03/24 04:52:37;;;;;;;2.10;1.48;;;3.90;99.90;;;;;;4996143;28;20046;-74
2024/03/24 04:55:03;;;;;;;1.45;1.35;;;3.90;99.90;;;;;;4996835;28;20457;-74
2024/03/24 04:57:29;;;;;;;0.60;0.60;;;3.90;99.90;;;;;;4995314;28;20041;-74
2024/03/24 04:59:55;;;;;;;1.40;0.80;;;3.80;99.90;;;;;;5001753;28;20022;-75
2024/03/24 05:02:20;;;;;;;1.08;1.05;;;3.80;99.90;;;;;;5002509;28;20036;-74
2024/03/24 05:04:46;;;;;;;7.57;1.10;;;3.80;99.90;;;;;;5002922;28;20026;-74
2024/03/24 05:07:12;;;;;;;1.38;1.20;;;3.80;99.90;;;;;;5002983;28;20049;-74
2024/03/24 05:09:38;;;;;;;1.90;0.90;;;3.80;99.90;;;;;;5002222;28;20030;-74
2024/03/24 05:12:04;;;;;;;0.80;0.80;;;3.80;99.90;;;;;;5002134;28;20050;-74
2024/03/24 05:14:29;;;;;;;0.90;0.90;;;3.90;99.90;;;;;;5001911;28;20417;-74
2024/03/24 05:16:55;;;;;;;1.23;0.60;;;3.90;99.90;;;;;;5001132;28;20028;-73
2024/03/24 05:19:20;;;;;;;2.53;1.00;;;3.90;99.90;;;;;;5000127;28;20575;-74
2024/03/24 05:21:46;;;;;;;0.65;0.60;;;3.90;99.90;;;;;;5007074;28;20033;-74
2024/03/24 05:24:12;;;;;;;0.77;0.77;;;3.90;99.90;;;;;;5005223;28;20022;-74
2024/03/24 05:26:37;;;;;;;1.15;0.85;;;3.90;99.90;;;;;;5004414;28;20080;-75
2024/03/24 05:29:05;;;;;;;2.13;1.13;;;3.90;99.90;;;;;;5002779;28;20034;-76
2024/03/24 05:31:31;;;;;;;1.40;0.90;;;3.90;99.90;;;;;;5004036;28;20391;-75
2024/03/24 05:33:57;;;;;;;2.45;1.27;;;3.90;99.90;;;;;;4995694;28;20054;-75
2024/03/24 05:36:24;;;;;;;1.58;0.90;;;5.70;99.90;;;;;;4988652;28;20034;-77
2024/03/24 05:38:50;;;;;;;1.73;0.95;;;5.30;99.90;;;;;;4995763;28;20420;-74
2024/03/24 05:41:15;;;;;;;0.77;0.77;;;4.90;99.90;;;;;;4993811;28;20050;-75
2024/03/24 05:43:42;;;;;;;1.73;0.80;;;4.50;99.90;;;;;;4987209;28;20035;-74
2024/03/24 05:46:08;;;;;;;4.32;0.80;;;4.50;99.90;;;;;;4992019;28;20049;-74
2024/03/24 05:48:34;;;;;;;0.80;0.80;;;4.30;99.90;;;;;;4994692;28;20030;-74
2024/03/24 05:51:01;;;;;;;1.67;1.13;;;4.30;99.90;;;;;;4996971;28;20496;-74
2024/03/24 05:53:27;;;;;;;1.33;1.17;;;4.20;99.90;;;;;;4997773;28;20496;-73
2024/03/24 05:55:53;;;;;;;2.80;1.77;;;4.20;99.90;;;;;;4990127;28;20027;-75
2024/03/24 05:58:19;;;;;;;2.38;2.17;;;4.10;99.90;;;;;;4991766;28;20463;-75
2024/03/24 06:00:48;;;;;;;2.38;2.17;;;4.10;99.90;;;;;;4997212;28;20023;-74
2024/03/24 06:03:14;;;;;;;3.20;2.05;;;4.20;99.90;;;;;;4996283;28;20030;-75
2024/03/24 06:05:40;;;;;;;6.22;4.15;;;4.30;99.90;;;;;;4982093;28;20516;-74
2024/03/24 06:08:08;;;;;;;4.45;3.33;;;4.30;99.90;;;;;;4983240;28;20481;-74
2024/03/24 06:10:35;;;;;;;1.88;1.77;;;4.30;99.90;;;;;;4985714;28;20398;-75
2024/03/24 06:13:00;;;;;;;1.65;1.50;;;4.30;99.90;;;;;;4994361;28;20029;-74
2024/03/24 06:15:26;;;;;;;1.50;1.40;;;4.30;99.90;;;;;;4994698;28;20030;-74
2024/03/24 06:17:51;;;;;;;7.85;4.05;;;4.40;99.90;;;;;;4993426;28;20038;-75
2024/03/24 06:20:17;;;;;;;11.35;5.10;;;4.40;99.90;;;;;;4995527;28;20030;-74
2024/03/24 06:22:43;;;;;;;4.28;3.40;;;4.40;99.90;;;;;;4992774;28;20054;-75
2024/03/24 06:25:08;;;;;;;2.95;1.80;;;4.40;99.90;;;;;;4994857;28;20102;-76
2024/03/24 06:27:35;;;;;;;1.13;0.98;;;4.30;99.90;;;;;;4985404;28;20161;-75
2024/03/24 06:30:03;;;;;;;1.98;1.42;;;4.40;99.90;;;;;;4981013;28;20026;-75
2024/03/24 06:32:29;;;;;;;1.25;1.05;;;4.50;99.90;;;;;;4984605;28;20429;-74
2024/03/24 06:34:55;;;;;;;1.65;1.10;;;4.60;99.90;;;;;;4985766;28;20029;-76
2024/03/24 06:37:20;;;;;;;1.30;1.20;;;4.70;99.90;;;;;;4985317;28;20031;-76
2024/03/24 06:39:46;;;;;;;2.65;2.45;;;4.70;99.90;;;;;;5000285;28;20145;-75
2024/03/24 06:42:12;;;;;;;7.25;3.97;;;4.70;99.90;;;;;;4982122;28;20092;-75
2024/03/24 06:44:41;;;;;;;7.32;4.53;;;4.80;99.90;;;;;;4990203;28;20026;-75
2024/03/24 06:47:07;;;;;;;4.75;3.50;;;4.90;99.90;;;;;;4994347;28;20461;-75
2024/03/24 06:49:33;;;;;;;2.70;2.42;;;5.00;99.90;;;;;;4994018;28;20105;-74
2024/03/24 06:51:59;;;;;;;5.90;3.50;;;5.10;99.90;;;;;;4992232;28;20117;-76
2024/03/24 06:54:24;;;;;;;11.10;5.95;;;5.20;99.90;;;;;;4994181;28;20026;-75
2024/03/24 06:56:50;;;;;;;3.47;2.55;;;5.20;99.90;;;;;;4994473;28;20030;-76
2024/03/24 06:59:16;;;;;;;3.22;2.85;;;5.30;99.90;;;;;;4994269;28;20022;-75
2024/03/24 07:01:41;;;;;;;2.20;2.00;;;5.30;99.90;;;;;;4992596;28;20026;-76
2024/03/24 07:04:07;;;;;;;4.72;1.90;;;5.10;99.90;;;;;;4992229;28;20322;-75
2024/03/24 07:06:32;;;;;;;3.10;2.33;;;5.20;99.90;;;;;;4992883;28;20073;-75
2024/03/24 07:08:58;;;;;;;5.07;4.68;;;5.20;99.90;;;;;;4982928;28;20030;-75
2024/03/24 07:11:24;;;;;;;5.10;4.55;;;5.20;99.90;;;;;;4972926;28;20500;-76
2024/03/24 07:13:50;;;;;;;6.25;3.30;;;5.30;99.90;;;;;;4984094;28;20022;-76
2024/03/24 07:16:16;;;;;;;7.30;5.18;;;5.40;99.90;;;;;;4994146;28;20085;-75
2024/03/24 07:18:41;;;;;;;5.07;4.35;;;5.60;99.90;;;;;;4992628;28;20041;-76
2024/03/24 07:21:07;;;;;;;5.47;4.65;;;5.80;99.90;;;;;;4991641;28;20029;-76
2024/03/24 07:23:33;;;;;;;2.97;2.67;;;5.70;99.90;;;;;;4995907;28;20477;-76
2024/03/24 07:25:59;;;;;;;2.42;2.22;;;5.70;99.90;;;;;;4997315;28;20022;-75
2024/03/24 07:28:25;;;;;;;2.35;2.15;;;5.70;99.90;;;;;;4996764;28;20362;-75
2024/03/24 07:30:51;;;;;;;2.20;1.88;;;5.70;99.90;;;;;;5005536;28;20037;-76
2024/03/24 07:33:17;;;;;;;3.88;2.75;;;5.90;99.90;;;;;;5009108;28;20027;-74
2024/03/24 07:35:42;;;;;;;5.93;3.28;;;6.00;99.90;;;;;;5013561;28;20053;-75
2024/03/24 07:38:09;;;;;;;2.67;2.20;;;5.90;99.90;;;;;;5008485;28;20026;-75
2024/03/24 07:40:34;;;;;;;4.05;3.40;;;5.90;99.90;;;;;;4996917;28;20033;-75
2024/03/24 07:43:00;;;;;;;5.25;4.75;;;6.10;99.90;;;;;;4997592;28;20019;-75
2024/03/24 07:45:26;;;;;;;2.97;2.70;;;6.20;99.90;;;;;;4996322;28;20475;-77
2024/03/24 07:47:51;;;;;;;3.08;2.22;;;6.00;99.90;;;;;;4994799;28;20037;-75
2024/03/24 07:50:17;;;;;;;4.10;1.92;;;6.10;99.90;;;;;;4994584;28;20053;-75
2024/03/24 07:52:43;;;;;;;2.40;1.85;;;6.20;99.90;;;;;;4994882;28;20033;-75
2024/03/24 07:55:09;;;;;;;2.17;1.90;;;6.30;99.90;;;;;;4980550;28;20046;-76
2024/03/24 07:57:37;;;;;;;2.17;1.92;;;6.30;99.90;;;;;;4977115;28;20092;-74
2024/03/24 08:00:04;;;;;;;4.10;2.67;;;6.20;99.90;;;;;;4983115;28;20022;-75
2024/03/24 08:02:29;;;;;;;3.00;2.00;;;6.20;99.90;;;;;;4985284;28;20034;-75
2024/03/24 08:04:55;;;;;;;4.72;2.05;;;6.10;99.90;;;;;;4985722;28;20076;-75
2024/03/24 08:07:21;;;;;;;2.00;1.80;;;6.10;99.90;;;;;;4989381;28;20031;-75
2024/03/24 08:09:46;;;;;;;1.73;1.63;;;6.20;99.90;;;;;;4997779;23;20050;-75
2024/03/24 08:12:12;;;;;;;2.33;2.00;;;6.20;99.90;;;;;;4998800;28;20018;-76
2024/03/24 08:14:38;;;;;;;8.88;2.00;;;6.30;99.90;;;;;;4995044;28;20708;-76
2024/03/24 08:17:04;;;;;;;2.58;2.38;;;6.10;99.90;;;;;;5012482;28;20017;-77
2024/03/24 08:19:29;;;;;;;3.10;2.67;;;6.10;99.90;;;;;;5002074;28;20031;-80
2024/03/24 08:21:57;;;;;;;7.20;5.45;;;6.10;99.90;;;;;;4993627;28;20022;-80
2024/03/24 08:24:22;;;;;;;3.35;2.97;;;6.30;99.90;;;;;;4993309;28;20078;-75
2024/03/24 08:26:48;;;;;;;5.63;3.53;;;6.40;99.90;;;;;;4980730;28;20023;-77
2024/03/24 08:29:14;;;;;;;3.20;2.50;;;6.50;99.90;;;;;;4992905;28;20030;-76
2024/03/24 08:31:39;;;;;;;1.88;1.50;;;6.50;99.90;;;;;;4992233;28;20083;-76
2024/03/24 08:34:05;;;;;;;3.78;2.38;;;6.30;99.90;;;;;;4990593;28;20034;-77
2024/03/24 08:36:31;;;;;;;6.60;2.90;;;6.40;99.90;;;;;;4991919;28;20031;-79
2024/03/24 08:38:56;;;;;;;4.30;3.10;;;6.60;99.90;;;;;;4991914;28;20056;-79
2024/03/24 08:41:22;;;;;;;5.35;3.85;;;6.90;99.90;;;;;;4993652;28;20061;-77
2024/03/24 08:43:48;;;;;;;3.63;2.92;;;7.10;99.90;;;;;;4982331;28;20037;-77
2024/03/24 08:46:13;;;;;;;5.47;3.63;;;7.40;99.90;;;;;;4983901;28;20397;-78
2024/03/24 08:48:39;;;;;;;6.93;3.58;;;7.60;99.90;;;;;;4994385;28;20070;-78
2024/03/24 08:51:08;;;;;;;7.38;5.05;;;7.60;99.90;;;;;;4995283;28;20056;-80
2024/03/24 08:53:41;;;;;;;4.93;2.65;;;7.70;99.90;;;;;;4982677;28;20042;-80
2024/03/24 08:56:06;;;;;;;6.30;4.07;;;7.30;99.90;;;;;;4972761;28;20037;-78
2024/03/24 08:58:32;;;;;;;14.18;8.18;;;7.90;99.90;;;;;;4972793;28;20117;-79
2024/03/24 09:00:58;;;;;;;6.20;4.50;;;7.70;99.90;;;;;;4977144;28;20505;-80
2024/03/24 09:03:23;;;;;;;15.15;8.45;;;7.60;99.90;;;;;;4977989;28;20441;-78
2024/03/24 09:05:49;;;;;;;9.43;5.30;;;7.70;99.90;;;;;;4973011;28;20046;-76
2024/03/24 09:08:15;;;;;;;5.30;2.95;;;7.60;99.90;;;;;;4972088;28;20027;-80
2024/03/24 09:10:41;;;;;;;11.07;5.10;;;7.50;99.90;;;;;;4973927;28;20025;-78
2024/03/24 09:13:06;;;;;;;15.98;7.57;;;7.70;99.90;;;;;;4972142;28;20031;-78
2024/03/24 09:15:32;;;;;;;23.95;15.32;;;7.90;99.90;;;;;;4973583;28;20029;-76
2024/03/24 09:17:58;;;;;;;11.93;9.98;;;8.20;99.90;;;;;;4973351;28;20023;-79
2024/03/24 09:20:23;;;;;;;5.07;4.30;;;8.30;99.90;;;;;;4973077;28;20019;-77
2024/03/24 09:22:49;;;;;;;3.42;2.95;;;8.50;99.90;;;;;;4971442;28;20030;-78
2024/03/24 09:25:15;;;;;;;1.60;1.50;;;8.40;99.90;;;;;;4973033;28;20510;-78
2024/03/24 09:27:40;;;;;;;3.47;1.90;;;8.50;99.90;;;;;;4973448;28;20022;-76
2024/03/24 09:30:07;;;;;;;2.35;2.15;;;8.60;99.90;;;;;;4984213;28;20400;-77
2024/03/24 09:32:32;;;;;;;4.53;3.45;;;8.80;99.90;;;;;;4990635;28;20038;-76
2024/03/24 09:34:58;;;;;;;3.35;1.92;;;8.90;99.90;;;;;;4996371;28;20093;-79
2024/03/24 09:37:24;;;;;;;1.83;1.73;;;8.90;99.90;;;;;;4992326;28;20022;-76
2024/03/24 09:39:50;;;;;;;4.20;3.05;;;9.00;99.90;;;;;;4992440;28;20022;-78
2024/03/24 09:42:19;;;;;;;1.83;1.50;;;9.00;99.90;;;;;;4994402;28;20242;-80
2024/03/24 09:44:46;;;;;;;1.80;1.70;;;9.20;99.90;;;;;;4993357;28;20030;-79
2024/03/24 09:47:12;;;;;;;6.38;4.20;;;9.20;99.90;;;;;;4995857;28;20121;-78
2024/03/24 09:54:40;;;;;;;1.70;1.25;;;9.50;99.90;;;;;;5174950;23;20089;-78
2024/03/24 09:57:06;;;;;;;1.75;1.45;;;9.60;99.90;;;;;;4974795;28;20027;-77
2024/03/24 09:59:36;;;;;;;2.40;1.15;;;9.70;99.90;;;;;;4975903;28;20031;-77
2024/03/24 10:02:01;;;;;;;1.02;1.00;;;9.70;99.90;;;;;;4975541;28;20080;-77
2024/03/24 10:04:27;;;;;;;2.25;1.30;;;9.70;99.80;;;;;;4974809;28;20031;-77
2024/03/24 10:06:53;;;;;;;1.75;1.05;;;9.90;99.90;;;;;;4976055;28;20055;-77
2024/03/24 10:09:18;;;;;;;3.72;2.33;;;10.10;99.90;;;;;;4974496;28;20022;-77
2024/03/24 10:11:44;;;;;;;1.08;0.88;;;10.20;98.80;;;;;;4971735;28;20030;-76
2024/03/24 10:14:10;;;;;;;3.00;2.70;;;10.30;96.90;;;;;;4967307;28;20445;-77
2024/03/24 10:16:35;;;;;;;5.38;3.50;;;10.30;96.80;;;;;;4975687;28;20098;-76
2024/03/24 10:19:11;;;;;;;7.10;4.70;;;10.30;98.80;;;;;;4973739;28;20037;-77
2024/03/24 10:21:38;;;;;;;1.35;1.15;;;10.50;98.20;;;;;;4975498;28;20116;-77
2024/03/24 10:24:06;;;;;;;1.02;0.70;;;10.40;96.00;;;;;;4967033;28;20019;-77
2024/03/24 10:26:36;;;;;;;1.00;0.80;;;10.50;95.80;;;;;;4974581;28;20038;-77
2024/03/24 10:29:03;;;;;;;4.60;2.15;;;10.50;95.20;;;;;;4974596;28;20044;-78
2024/03/24 10:31:29;;;;;;;2.40;2.20;;;10.70;96.10;;;;;;4974978;28;20166;-76
2024/03/24 10:33:55;;;;;;;4.30;1.60;;;11.10;96.80;;;;;;4972152;28;20109;-77
2024/03/24 10:36:22;;;;;;;1.42;1.10;;;11.20;94.00;;;;;;4975330;28;20133;-76
2024/03/24 10:38:47;;;;;;;3.85;2.08;;;11.20;94.30;;;;;;4973969;28;20135;-76
2024/03/24 10:41:14;;;;;;;1.92;1.65;;;11.10;94.10;;;;;;4975265;28;20162;-77
2024/03/24 10:43:45;;;;;;;2.53;1.00;;;11.00;91.50;;;;;;4973503;28;20110;-77
2024/03/24 10:46:11;;;;;;;3.00;2.10;;;11.10;92.30;;;;;;4973948;28;20040;-76
2024/03/24 10:48:43;;;;;;;3.38;1.85;;;11.20;93.00;;;;;;4974922;28;20106;-77
2024/03/24 10:51:11;;;;;;;2.40;1.73;;;11.20;93.10;;;;;;4975016;28;20019;-77
2024/03/24 10:53:37;;;;;;;3.97;2.20;;;11.40;92.70;;;;;;4974182;28;20038;-77
2024/03/24 10:56:04;;;;;;;0.88;0.88;;;12.00;92.20;;;;;;4971532;28;20033;-76
2024/03/24 10:58:31;;;;;;;1.55;1.42;;;12.10;89.60;;;;;;4971649;28;20536;-76
2024/03/24 11:00:57;;;;;;;0.82;0.82;;;12.10;87.40;;;;;;4974582;28;20023;-76
2024/03/24 11:03:23;;;;;;;0.50;0.50;;;12.10;85.50;;;;;;4973443;28;20445;-77
2024/03/24 11:05:51;;;;;;;0.35;0.35;;;12.20;81.20;;;;;;4973696;28;20540;-77
2024/03/24 11:08:18;;;;;;;0.60;0.60;;;12.20;79.40;;;;;;4974652;28;20023;-78
2024/03/24 11:10:47;;;;;;;0.68;0.55;;;12.20;81.40;;;;;;4973237;28;20027;-78
2024/03/24 11:13:22;;;;;;;0.52;0.52;;;12.20;80.90;;;;;;4972595;28;20034;-78
2024/03/24 11:15:49;;;;;;;1.63;0.60;;;12.40;76.00;;;;;;4974599;28;20019;-77
2024/03/24 11:18:23;;;;;;;1.75;0.88;;;12.30;73.90;;;;;;4973378;28;20425;-77
2024/03/24 11:20:52;;;;;;;0.63;0.50;;;12.20;75.30;;;;;;4972107;28;20023;-76
2024/03/24 11:23:38;;;;;;;5.90;2.22;;;12.30;80.30;;;;;;4971265;28;20119;-77
2024/03/24 11:26:06;;;;;;;4.60;2.05;;;12.50;80.10;;;;;;4972672;28;20379;-76
2024/03/24 11:28:40;;;;;;;1.17;0.88;;;12.60;76.20;;;;;;4972787;28;20026;-77
2024/03/24 11:31:22;;;;;;;1.35;1.00;;;12.40;74.10;;;;;;4964759;28;20385;-76
2024/03/24 11:33:59;;;;;;;2.35;1.48;;;12.10;77.70;;;;;;4973740;28;20031;-77
2024/03/24 11:36:26;;;;;;;0.75;0.75;;;12.00;75.30;;;;;;4972973;28;20031;-76
2024/03/24 11:38:53;;;;;;;0.50;0.50;;;11.90;73.10;;;;;;4971067;28;20031;-77
2024/03/24 11:41:19;;;;;;;2.13;0.63;;;11.80;72.60;;;;;;4972653;28;20401;-77
2024/03/24 11:44:02;;;;;;;1.75;0.73;;;11.50;73.50;;;;;;4973636;28;20027;-77
2024/03/24 11:46:31;;;;;;;0.60;0.50;;;11.30;75.20;;;;;;4972785;28;20026;-77
2024/03/24 11:48:59;;;;;;;0.38;0.38;;;11.10;75.30;;;;;;4973507;28;20027;-79
2024/03/24 11:51:26;;;;;;;1.17;0.52;;;11.00;79.70;;;;;;4972369;28;20449;-76
2024/03/24 11:53:56;;;;;;;1.20;0.70;;;10.90;82.00;;;;;;4973228;28;20554;-77
2024/03/24 11:56:25;;;;;;;2.03;1.10;;;10.70;80.90;;;;;;4973963;28;20015;-76
2024/03/24 11:58:52;;;;;;;2.60;0.80;;;10.50;81.80;;;;;;4974156;28;20098;-76
2024/03/24 12:01:19;;;;;;;1.80;0.50;;;10.30;87.60;;;;;;4975989;28;20504;-76
2024/03/24 12:03:48;;;;;;;0.98;0.40;;;10.00;90.40;;;;;;4974520;28;20038;-76
2024/03/24 12:06:15;;;;;;;1.52;0.60;;;9.60;91.90;;;;;;4971012;28;20027;-76
2024/03/24 12:08:47;;;;;;;0.52;0.50;;;9.10;94.30;;;;;;4972372;28;20031;-76
2024/03/24 12:11:17;;;;;;;2.80;0.40;;;8.60;97.90;;;;;;4969901;28;20033;-77
2024/03/24 12:13:45;;;;;;;6.30;0.68;;;8.00;99.90;;;;;;4969065;28;20121;-77
2024/03/24 12:16:18;;;;;;;0.70;0.40;;;7.10;99.90;;;;;;4973387;28;20094;-77
2024/03/24 12:18:44;;;;;;;0.85;0.47;;;6.60;99.90;;;;;;4965763;28;20023;-76
2024/03/24 12:21:09;;;;;;;0.50;0.40;;;6.40;99.90;;;;;;4968279;28;20142;-77
2024/03/24 12:23:36;;;;;;;0.28;0.25;;;6.40;99.90;;;;;;4965454;28;20028;-77
2024/03/24 12:26:04;;;;;;;3.30;1.35;;;6.30;99.90;;;;;;4963414;28;20027;-76
2024/03/24 12:28:30;;;;;;;0.60;0.50;;;6.30;99.90;;;;;;4973176;28;20026;-77
2024/03/24 12:30:57;;;;;;;0.55;0.20;;;6.50;99.90;;;;;;4969380;28;20039;-77
2024/03/24 12:33:25;;;;;;;0.35;0.35;;;6.50;99.90;;;;;;4966786;28;20030;-77
2024/03/24 12:35:53;;;;;;;1.33;1.00;;;6.50;99.90;;;;;;4973119;28;20389;-76
2024/03/24 12:38:19;;;;;;;0.77;0.40;;;6.50;99.90;;;;;;4973039;28;20014;-77
2024/03/24 12:40:52;;;;;;;1.70;0.40;;;6.60;99.90;;;;;;4972726;28;20027;-76
2024/03/24 12:43:18;;;;;;;1.45;0.22;;;6.60;99.90;;;;;;4970481;28;20642;-76
2024/03/24 12:46:00;;;;;;;1.02;0.20;;;6.70;99.90;;;;;;4973003;28;20091;-76
2024/03/24 12:48:28;;;;;;;0.43;0.32;;;6.70;99.90;;;;;;4971867;28;20490;-77
2024/03/24 12:50:57;;;;;;;0.45;0.25;;;6.90;99.90;;;;;;4971602;28;20489;-77
2024/03/24 12:53:34;;;;;;;0.40;0.40;;;6.90;99.90;;;;;;4972297;28;20504;-76
2024/03/24 12:56:01;;;;;;;0.80;0.57;;;7.00;99.90;;;;;;4971789;28;20030;-75